Olivebridge, NY

7:16 AM EDT on September 16, 2014 (GMT -0400)
The Vly | Change Station
CLOSE
Current Station
Personal Weather Station
Location: Stone Ridge, NY
Elevation: 880 ft
Nearby Weather Stations

Elev 880 ft 41.89 °N, 74.21 °W | Updated 0 second ago

Mostly Cloudy
Mostly Cloudy
52.1 °F
Feels Like 52.1 °F
N
0.0
Wind Variable Wind from NW
Gusts 0.0 mph

Today
High -- | Low -- °F
--% Chance of Precip.
Yesterday
High -- | Low -- °F
Precip. -- in
6:38 AM 7:04 PM
Last Quarter, 46% visible
Pressure 30.02 in
Visibility 2.0 miles
Clouds Few 2400 ft
Overcast 3200 ft
Dew Point 51 °F
Humidity 96%
Rainfall 0.00 in
Snow Depth Not available.
UV 0 out of 12
Pollen 1.50 out of 12
PM2.5 Good
Flu Activity Not available.
SPECI KMGJ 161110Z AUTO 00000KT 2SM RA BR FEW024 OVC032 12/11 A3002 RMK AO2 P0008 T01170106 TSNO $

More Conditions Fewer Conditions

Pressure 30.02 in
Visibility 2.0 miles
Clouds Few 2400 ft
Overcast 3200 ft
Dew Point 51 °F
Humidity 96%
Rainfall 0.00 in
Snow Depth Not available.
UV 0 out of 12
Pollen 1.50 out of 12
PM2.5 Good
Flu Activity Not available.
SPECI KMGJ 161110Z AUTO 00000KT 2SM RA BR FEW024 OVC032 12/11 A3002 RMK AO2 P0008 T01170106 TSNO $

More Conditions Fewer Conditions

10-Day Weather Forecast

Almanac

Astronomy

Sep. 16, 2014 Rise Set
Actual Time 6:38 AM EDT 7:04 PM EDT
Civil Twilight 6:10 AM EDT 7:32 PM EDT
Nautical Twilight 5:37 AM EDT 8:05 PM EDT
Astronomical Twilight 5:03 AM EDT 8:39 PM EDT
Moon No Moon Rise 2:30 PM EDT
Length of Visible Light 13h 22m
Length of Day
12h 26m
Tomorrow will be 2m 48s shorter.
Last Quarter, 46% of the Moon is Illuminated
Today
Last Quarter
Sep 24
New
Oct 1
First Quarter
Oct 8
Full
Oct 15
Last Quarter

Today's Extremes

State Highs State Lows

Community

WunderPhotos

Upload Photos

1,753,724 photos uploaded!

WunderBlogs® & News

By Dr. Jeff Masters
Director of Meteorology, Weather Underground
By Kari Strenfel
Meteorologist, Weather Underground
By Christopher C. Burt
Weather Historian, Weather Underground
September 16, 2014
September 16, 2014
September 16, 2014

Nearby

Air Quality

  Air Quality AQ Index Pollutant
Yesterday Good
OZONE
Yesterday Good
PM2.5
Current Good
PM2.5
Tuesday Good
OZONE
Tuesday Good
PM2.5

Snow Depth

Station Depth Elevation
No new snow has been reported.

Earthquake Activity

City Distance Mag. Time & Date
No recent earthquake activity has been reported nearby.
Minimum magnitude displayed is 2.5.

Coastal Water Temperatures

Place Temperature
No Stations Reporting

Nearby Weather Stations